Gregorytown, New York
Current Conditions -  °F | °C
As of 4:35 PM on Wednesday 17 Dec 2014 (Local Time) from KMSV Reporting Station
Overcast Overcast  
Wind Chill: 28°   Ceiling: 1900
Heat Index: 36°   Visibility: 10mi
Dew Point: 34°   Wind: 12mph
Humidity: 93%   Direction: 290°WNW
Pressure: 29.85"   Gusts: 18mph
Location:  42.0755°N, 75.0491°W
Report Text: KMSV 172135Z AUTO 29010G16KT 10SM BKN019 OVC027 02/01 A2985 RMK AO1
Loading
Personal Weather Stations






























Interactive Weather Map New forecast layout! Learn more

10-Day Weather Forecast

Advertisements
Track Severe Weather on mobile